createdAt,value
2019-02-19T00:01:53.910Z,6.67
2019-02-19T00:04:22.393Z,5.93
2019-02-19T00:06:50.870Z,5.97
2019-02-19T00:09:19.290Z,6.60
2019-02-19T00:11:47.814Z,6.03
2019-02-19T00:14:16.628Z,5.87
2019-02-19T00:16:45.151Z,5.73
2019-02-19T00:19:13.648Z,5.73
2019-02-19T00:21:42.222Z,6.00
2019-02-19T00:24:10.659Z,6.10
2019-02-19T00:26:39.106Z,6.23
2019-02-19T00:29:07.586Z,6.37
2019-02-19T00:31:36.064Z,6.63
2019-02-19T00:34:04.552Z,5.90
2019-02-19T00:36:33.302Z,6.30
2019-02-19T00:39:01.768Z,5.90
2019-02-19T00:41:30.240Z,7.67
2019-02-19T00:43:58.822Z,5.63
2019-02-19T00:46:27.360Z,6.37
2019-02-19T00:48:55.805Z,6.00
2019-02-19T00:51:24.599Z,6.30
2019-02-19T00:53:53.200Z,5.60
2019-02-19T00:56:21.759Z,6.40
2019-02-19T00:58:50.209Z,6.57
2019-02-19T01:01:18.637Z,6.33
2019-02-19T01:03:47.328Z,6.60
2019-02-19T01:06:15.760Z,6.27
2019-02-19T01:08:44.393Z,7.53
2019-02-19T01:11:12.880Z,7.17
2019-02-19T01:13:41.539Z,7.20
2019-02-19T01:16:10.719Z,8.00
2019-02-19T01:18:39.793Z,6.77
2019-02-19T01:21:08.278Z,7.03
2019-02-19T01:23:37.161Z,7.40
2019-02-19T01:26:05.631Z,7.87
2019-02-19T01:28:34.158Z,7.97
2019-02-19T01:31:02.660Z,8.17
2019-02-19T01:33:31.468Z,8.87
2019-02-19T01:35:59.950Z,8.53
2019-02-19T01:38:28.465Z,8.40
2019-02-19T01:40:57.020Z,9.03
2019-02-19T01:43:25.461Z,7.73
2019-02-19T01:45:53.953Z,8.97
2019-02-19T01:48:22.380Z,10.40
2019-02-19T01:50:51.034Z,9.37
2019-02-19T01:53:19.441Z,11.10
2019-02-19T01:55:47.906Z,11.77
2019-02-19T01:58:16.363Z,11.70
2019-02-19T02:00:44.923Z,13.60
2019-02-19T02:03:13.375Z,15.47
2019-02-19T02:05:41.893Z,16.30
2019-02-19T02:08:10.631Z,15.40
2019-02-19T02:10:39.119Z,16.73
2019-02-19T02:13:07.706Z,16.33
2019-02-19T02:15:42.547Z,16.83
2019-02-19T02:18:06.521Z,16.97
2019-02-19T02:20:35.109Z,15.93
2019-02-19T02:23:03.556Z,16.57
2019-02-19T02:25:32.096Z,16.97
2019-02-19T02:28:00.536Z,16.73
2019-02-19T02:30:29.563Z,16.53
2019-02-19T02:32:58.079Z,15.63
2019-02-19T02:35:26.602Z,16.03
2019-02-19T02:37:55.125Z,15.70
2019-02-19T02:40:23.586Z,16.60
2019-02-19T02:42:52.081Z,16.20
2019-02-19T02:45:20.545Z,15.47
2019-02-19T02:47:48.986Z,14.90
2019-02-19T02:50:17.441Z,15.47
2019-02-19T02:52:45.965Z,15.80
2019-02-19T02:55:14.448Z,15.87
2019-02-19T02:57:43.001Z,15.07
2019-02-19T03:00:12.736Z,15.23
2019-02-19T03:02:41.193Z,16.40
2019-02-19T03:05:09.764Z,16.23
2019-02-19T03:07:39.917Z,16.27
2019-02-19T03:10:08.487Z,17.20
2019-02-19T03:12:37.141Z,17.13
2019-02-19T03:15:07.300Z,17.87
2019-02-19T03:17:35.785Z,17.47
2019-02-19T03:20:05.955Z,17.60
2019-02-19T03:22:34.469Z,17.17
2019-02-19T03:25:03.355Z,17.93
2019-02-19T03:27:31.865Z,17.33
2019-02-19T03:30:00.297Z,18.33
2019-02-19T03:32:28.885Z,18.03
2019-02-19T03:34:57.487Z,17.77
2019-02-19T03:37:26.011Z,19.20
2019-02-19T03:39:54.501Z,18.67
2019-02-19T03:42:23.209Z,18.53
2019-02-19T03:44:51.832Z,19.13
2019-02-19T03:47:20.349Z,18.57
2019-02-19T03:49:48.873Z,18.70
2019-02-19T03:52:17.329Z,18.77
2019-02-19T03:54:45.927Z,18.20
2019-02-19T03:57:14.653Z,18.47
2019-02-19T03:59:43.286Z,19.87
2019-02-19T04:02:11.839Z,19.07
2019-02-19T04:04:40.530Z,19.70
2019-02-19T04:07:09.023Z,19.50
2019-02-19T04:09:37.625Z,20.30
2019-02-19T04:12:06.126Z,20.27
2019-02-19T04:14:34.640Z,20.30
2019-02-19T04:17:03.071Z,20.57
2019-02-19T04:19:31.567Z,20.53
2019-02-19T04:21:59.985Z,20.70
2019-02-19T04:24:28.565Z,20.80
2019-02-19T04:26:57.053Z,20.23
2019-02-19T04:29:25.546Z,21.47
2019-02-19T04:31:54.423Z,23.30
2019-02-19T04:34:22.867Z,21.20
2019-02-19T04:36:51.571Z,20.90
2019-02-19T04:39:20.040Z,21.20
2019-02-19T04:41:48.607Z,21.77
2019-02-19T04:44:17.080Z,21.40
2019-02-19T04:46:46.077Z,23.00
2019-02-19T04:49:14.531Z,24.33
2019-02-19T04:51:43.123Z,23.10
2019-02-19T04:54:11.553Z,24.40
2019-02-19T04:56:40.022Z,23.70
2019-02-19T04:59:08.691Z,23.27
2019-02-19T05:01:37.142Z,24.13
2019-02-19T05:04:05.769Z,24.00
2019-02-19T05:06:34.217Z,24.63
2019-02-19T05:09:02.649Z,24.63
2019-02-19T05:11:31.098Z,25.27
2019-02-19T05:13:59.593Z,23.77
2019-02-19T05:16:28.175Z,24.23
2019-02-19T05:18:56.697Z,25.87
2019-02-19T05:21:25.333Z,24.23
2019-02-19T05:23:53.830Z,23.77
2019-02-19T05:26:22.423Z,24.27
2019-02-19T05:28:50.949Z,23.67
2019-02-19T05:31:19.678Z,23.23
2019-02-19T05:33:48.104Z,23.83
2019-02-19T05:36:16.619Z,22.77
2019-02-19T05:38:45.057Z,21.90
2019-02-19T05:41:13.593Z,21.83
2019-02-19T05:43:42.089Z,22.63
2019-02-19T05:46:10.578Z,22.27
2019-02-19T05:48:39.054Z,21.13
2019-02-19T05:51:07.546Z,20.80
2019-02-19T05:53:36.002Z,20.50
2019-02-19T05:56:04.612Z,20.93
2019-02-19T05:58:33.086Z,19.30
2019-02-19T06:01:01.570Z,18.97
2019-02-19T06:03:30.081Z,18.77
2019-02-19T06:05:58.528Z,19.30
2019-02-19T06:08:26.968Z,18.60
2019-02-19T06:10:55.733Z,17.43
2019-02-19T06:13:24.262Z,20.90
2019-02-19T06:15:52.909Z,18.67
2019-02-19T06:18:21.435Z,18.33
2019-02-19T06:20:50.018Z,16.73
2019-02-19T06:23:18.462Z,17.30
2019-02-19T06:25:46.895Z,18.30
2019-02-19T06:28:15.529Z,16.97
2019-02-19T06:30:44.036Z,17.30
2019-02-19T06:33:12.575Z,17.70
2019-02-19T06:35:41.002Z,17.17
2019-02-19T06:38:09.535Z,17.87
2019-02-19T06:40:38.029Z,17.43
2019-02-19T06:43:06.527Z,17.33
2019-02-19T06:45:35.027Z,16.47
2019-02-19T06:48:03.562Z,17.03
2019-02-19T06:50:32.153Z,18.90
2019-02-19T06:53:00.632Z,18.83
2019-02-19T06:55:29.160Z,18.20
2019-02-19T06:57:57.734Z,19.13
2019-02-19T07:00:26.439Z,18.10
2019-02-19T07:03:05.518Z,18.67
2019-02-19T07:05:33.997Z,19.30
2019-02-19T07:08:02.444Z,18.37
2019-02-19T07:10:31.047Z,18.23
2019-02-19T07:12:59.471Z,17.43
2019-02-19T07:15:28.107Z,19.77
2019-02-19T07:17:56.704Z,18.40
2019-02-19T07:20:25.235Z,19.10
2019-02-19T07:22:53.659Z,18.97
2019-02-19T07:25:22.129Z,19.63
2019-02-19T07:27:50.623Z,19.27
2019-02-19T07:30:19.137Z,19.10
2019-02-19T07:32:47.599Z,19.67
2019-02-19T07:35:16.054Z,19.97
2019-02-19T07:37:44.562Z,19.63
2019-02-19T07:40:13.404Z,19.23
2019-02-19T07:42:41.840Z,18.50
2019-02-19T07:45:12.169Z,19.40
2019-02-19T07:47:40.624Z,19.13
2019-02-19T07:50:12.500Z,18.63
2019-02-19T07:52:41.040Z,19.93
2019-02-19T07:55:10.739Z,19.13
2019-02-19T07:57:39.305Z,18.63
2019-02-19T08:00:10.915Z,19.10
2019-02-19T08:02:39.439Z,19.50
2019-02-19T08:05:08.388Z,19.83
2019-02-19T08:07:36.919Z,19.70
2019-02-19T08:10:10.505Z,19.10
2019-02-19T08:12:38.968Z,18.70
2019-02-19T08:15:09.944Z,18.93
2019-02-19T08:17:39.413Z,19.10
2019-02-19T08:20:15.347Z,18.13
2019-02-19T08:22:39.707Z,17.57
2019-02-19T08:25:08.275Z,16.80
2019-02-19T08:27:36.713Z,17.27
2019-02-19T08:30:07.843Z,16.07
2019-02-19T08:32:36.313Z,16.03
2019-02-19T08:35:05.680Z,15.67
2019-02-19T08:37:34.179Z,15.57
2019-02-19T08:40:02.624Z,15.80
2019-02-19T08:42:31.281Z,14.67
2019-02-19T08:44:59.682Z,14.53
2019-02-19T08:47:28.215Z,14.63
2019-02-19T08:49:58.072Z,14.27
2019-02-19T08:52:26.689Z,12.63
2019-02-19T08:54:55.210Z,12.40
2019-02-19T08:57:23.771Z,13.50
2019-02-19T08:59:52.291Z,11.73
2019-02-19T09:02:20.863Z,13.10
2019-02-19T09:04:49.298Z,11.67
2019-02-19T09:07:17.803Z,11.70
2019-02-19T09:09:46.348Z,9.40
2019-02-19T09:12:14.919Z,10.70
2019-02-19T09:14:43.552Z,11.00
2019-02-19T09:17:12.170Z,11.33
2019-02-19T09:19:40.676Z,10.57
2019-02-19T09:22:09.107Z,11.00
2019-02-19T09:24:39.897Z,11.00
2019-02-19T09:27:08.314Z,9.97
2019-02-19T09:29:37.016Z,10.37
2019-02-19T09:32:05.442Z,9.77
2019-02-19T09:34:33.974Z,9.63
2019-02-19T09:37:02.431Z,8.87
2019-02-19T09:39:30.929Z,9.07
2019-02-19T09:41:59.659Z,9.20
2019-02-19T09:44:28.281Z,10.30
2019-02-19T09:46:56.766Z,9.57
2019-02-19T09:49:25.396Z,9.47
2019-02-19T09:51:53.999Z,8.43
2019-02-19T09:54:22.524Z,8.87
2019-02-19T09:56:51.024Z,8.77
2019-02-19T09:59:19.496Z,8.20
2019-02-19T10:01:47.925Z,9.00
2019-02-19T10:04:16.611Z,9.10
2019-02-19T10:06:45.108Z,9.63
2019-02-19T10:09:13.694Z,9.07
2019-02-19T10:11:42.300Z,8.67
2019-02-19T10:14:10.826Z,8.77
2019-02-19T10:16:41.719Z,8.70
2019-02-19T10:19:09.526Z,8.63
2019-02-19T10:21:38.013Z,8.60
2019-02-19T10:24:06.506Z,8.40
2019-02-19T10:26:35.034Z,7.67
2019-02-19T10:29:03.896Z,6.73
2019-02-19T10:31:32.361Z,8.07
2019-02-19T10:34:00.806Z,7.93
2019-02-19T10:36:29.344Z,7.80
2019-02-19T10:38:57.830Z,6.87
2019-02-19T10:41:26.501Z,5.50
2019-02-19T10:43:55.096Z,7.10
2019-02-19T10:46:23.578Z,6.73
2019-02-19T10:48:52.005Z,7.20
2019-02-19T10:51:20.802Z,6.07
2019-02-19T10:53:49.220Z,7.30
2019-02-19T10:56:17.899Z,7.10
2019-02-19T10:58:46.560Z,6.73
2019-02-19T11:01:15.470Z,6.23
2019-02-19T11:03:43.890Z,6.10
2019-02-19T11:06:12.480Z,6.67
2019-02-19T11:08:40.925Z,6.03
2019-02-19T11:11:09.453Z,6.50
2019-02-19T11:13:38.070Z,6.27
2019-02-19T11:16:06.798Z,6.07
2019-02-19T11:18:35.283Z,5.77
2019-02-19T11:21:03.835Z,6.80
2019-02-19T11:23:33.739Z,5.63
2019-02-19T11:26:02.474Z,5.87
2019-02-19T11:28:31.057Z,4.80
2019-02-19T11:30:59.616Z,5.20
2019-02-19T11:33:28.079Z,5.23
2019-02-19T11:35:56.528Z,5.10
2019-02-19T11:38:25.060Z,4.70
2019-02-19T11:40:53.535Z,4.10
2019-02-19T11:43:22.025Z,4.30
2019-02-19T11:45:50.455Z,5.07
2019-02-19T11:48:19.219Z,4.90
2019-02-19T11:50:47.672Z,4.80
2019-02-19T11:53:16.311Z,5.00
2019-02-19T11:55:44.719Z,3.87
2019-02-19T11:58:13.406Z,3.23
2019-02-19T12:00:43.627Z,3.40
2019-02-19T12:03:12.158Z,3.77
2019-02-19T12:05:40.674Z,3.80
2019-02-19T12:08:09.136Z,3.60
2019-02-19T12:10:38.108Z,3.83
2019-02-19T12:13:06.811Z,4.20
2019-02-19T12:15:35.671Z,3.93
2019-02-19T12:18:04.122Z,3.40
2019-02-19T12:20:32.649Z,3.33
2019-02-19T12:23:01.092Z,3.47
2019-02-19T12:25:29.690Z,4.20
2019-02-19T12:27:58.168Z,4.10
2019-02-19T12:30:26.708Z,3.57
2019-02-19T12:32:55.139Z,4.03
2019-02-19T12:35:23.734Z,3.80
2019-02-19T12:37:52.155Z,3.33
2019-02-19T12:40:21.239Z,2.93
2019-02-19T12:42:49.751Z,2.57
2019-02-19T12:45:18.234Z,3.57
2019-02-19T12:47:46.740Z,3.07
2019-02-19T12:50:19.390Z,3.10
2019-02-19T12:52:47.908Z,2.57
2019-02-19T12:55:16.529Z,3.30
2019-02-19T12:57:45.055Z,2.40
2019-02-19T13:00:16.609Z,2.67
2019-02-19T13:02:45.110Z,2.60
2019-02-19T13:05:14.864Z,2.43
2019-02-19T13:07:43.464Z,2.10
2019-02-19T13:10:12.611Z,2.20
2019-02-19T13:12:41.319Z,2.50
2019-02-19T13:15:14.756Z,2.30
2019-02-19T13:17:43.239Z,2.10
2019-02-19T13:20:15.883Z,2.70
2019-02-19T13:22:44.430Z,2.50
2019-02-19T13:25:13.273Z,2.20
2019-02-19T13:27:41.875Z,3.33
2019-02-19T13:30:15.770Z,2.80
2019-02-19T13:32:44.472Z,2.90
2019-02-19T13:35:13.657Z,2.53
2019-02-19T13:37:42.119Z,2.40
2019-02-19T13:40:13.048Z,2.23
2019-02-19T13:42:41.568Z,2.10
2019-02-19T13:45:14.877Z,2.30
2019-02-19T13:47:43.479Z,2.20
2019-02-19T13:50:20.709Z,2.37
2019-02-19T13:52:50.964Z,2.20
2019-02-19T13:55:21.573Z,2.27
2019-02-19T13:57:50.059Z,2.23
2019-02-19T14:00:20.512Z,2.63
2019-02-19T14:02:49.100Z,2.90
2019-02-19T14:05:17.613Z,2.10
2019-02-19T14:07:46.131Z,2.37
2019-02-19T14:10:14.655Z,2.50
2019-02-19T14:12:43.102Z,3.00
2019-02-19T14:15:25.939Z,2.30
2019-02-19T14:17:54.574Z,2.63
2019-02-19T14:20:27.458Z,2.20
2019-02-19T14:23:13.450Z,2.60
2019-02-19T14:25:49.907Z,2.53
2019-02-19T14:28:26.018Z,2.47
2019-02-19T14:31:01.561Z,2.37
2019-02-19T14:33:50.078Z,2.80
2019-02-19T14:36:20.140Z,3.17
2019-02-19T14:38:56.151Z,2.27
2019-02-19T14:41:43.026Z,2.77
2019-02-19T14:44:19.198Z,2.53
2019-02-19T14:46:51.713Z,2.73
2019-02-19T14:49:34.035Z,2.50
2019-02-19T14:51:56.367Z,2.43
2019-02-19T14:54:32.778Z,2.10
2019-02-19T14:57:02.923Z,2.30
2019-02-19T14:59:33.026Z,2.70
2019-02-19T15:02:03.099Z,2.33
2019-02-19T15:04:49.639Z,2.47
2019-02-19T15:07:37.879Z,3.13
2019-02-19T15:10:25.114Z,2.60
2019-02-19T15:13:04.425Z,2.50
2019-02-19T15:15:46.923Z,2.57
2019-02-19T15:18:20.011Z,2.37
2019-02-19T15:20:52.891Z,2.47
2019-02-19T15:23:25.983Z,2.57
2019-02-19T15:25:56.140Z,3.57
2019-02-19T15:28:38.431Z,2.53
2019-02-19T15:31:24.669Z,2.33
2019-02-19T15:33:54.854Z,3.53
2019-02-19T15:36:41.476Z,2.40
2019-02-19T15:39:20.731Z,3.03
2019-02-19T15:42:09.362Z,3.17
2019-02-19T15:44:54.691Z,3.53
2019-02-19T15:47:24.799Z,3.03
2019-02-19T15:50:01.098Z,2.90
2019-02-19T15:52:37.396Z,3.17
2019-02-19T15:55:23.988Z,3.27
2019-02-19T15:58:12.451Z,3.10
2019-02-19T16:00:48.256Z,3.50
2019-02-19T16:03:24.132Z,3.10
2019-02-19T16:05:54.407Z,3.10
2019-02-19T16:08:39.708Z,3.07
2019-02-19T16:11:12.992Z,3.73
2019-02-19T16:14:00.858Z,3.00
2019-02-19T16:16:47.301Z,3.00
2019-02-19T16:19:17.517Z,2.67
2019-02-19T16:21:47.592Z,2.73
2019-02-19T16:24:24.158Z,3.00
2019-02-19T16:27:00.230Z,2.43
2019-02-19T16:29:42.555Z,3.27
2019-02-19T16:32:21.726Z,3.10
2019-02-19T16:34:54.607Z,3.33
2019-02-19T16:37:37.202Z,3.20
2019-02-19T16:40:08.541Z,3.17
2019-02-19T16:42:38.601Z,2.83
2019-02-19T16:45:22.307Z,2.83
2019-02-19T16:47:54.914Z,3.23
2019-02-19T16:50:25.221Z,2.77
2019-02-19T16:53:13.757Z,3.13
2019-02-19T16:56:00.502Z,3.00
2019-02-19T16:58:30.698Z,2.50
2019-02-19T17:01:03.939Z,3.10
2019-02-19T17:03:34.248Z,3.00
2019-02-19T17:06:07.538Z,3.03
2019-02-19T17:08:40.565Z,3.13
2019-02-19T17:11:10.713Z,3.00
2019-02-19T17:13:58.318Z,3.33
2019-02-19T17:16:33.516Z,3.20
2019-02-19T17:19:09.879Z,3.20
2019-02-19T17:21:40.073Z,3.43
2019-02-19T17:24:15.986Z,2.97
2019-02-19T17:26:52.254Z,3.70
2019-02-19T17:29:22.335Z,3.27
2019-02-19T17:32:01.288Z,3.60
2019-02-19T17:34:34.318Z,3.10
2019-02-19T17:37:07.136Z,3.67
2019-02-19T17:39:43.211Z,3.67
2019-02-19T17:42:13.505Z,3.73
2019-02-19T17:44:46.598Z,3.40
2019-02-19T17:47:28.804Z,3.17
2019-02-19T17:50:08.063Z,3.70
2019-02-19T17:52:38.171Z,3.33
2019-02-19T17:55:19.967Z,3.83
2019-02-19T17:57:50.133Z,3.50
2019-02-19T18:00:26.624Z,4.10
2019-02-19T18:02:56.896Z,4.40
2019-02-19T18:05:26.951Z,4.33
2019-02-19T18:08:02.909Z,4.53
2019-02-19T18:10:35.869Z,4.07
2019-02-19T18:13:15.157Z,3.97
2019-02-19T18:16:03.357Z,4.33
2019-02-19T18:18:45.465Z,3.43
2019-02-19T18:21:13.906Z,3.53
2019-02-19T18:23:42.385Z,4.00
2019-02-19T18:26:10.840Z,3.23
2019-02-19T18:28:39.342Z,4.07
2019-02-19T18:31:07.825Z,4.00
2019-02-19T18:33:36.881Z,3.30
2019-02-19T18:36:05.541Z,3.67
2019-02-19T18:38:34.128Z,3.30
2019-02-19T18:41:02.824Z,3.40
2019-02-19T18:43:31.356Z,3.83
2019-02-19T18:45:59.773Z,3.80
2019-02-19T18:48:28.432Z,3.87
2019-02-19T18:50:58.535Z,4.00
2019-02-19T18:53:27.256Z,4.27
2019-02-19T18:55:56.062Z,4.50
2019-02-19T18:58:24.629Z,4.23
2019-02-19T19:00:53.165Z,3.87
2019-02-19T19:03:21.765Z,4.30
2019-02-19T19:05:50.437Z,4.47
2019-02-19T19:08:18.947Z,4.13
2019-02-19T19:10:47.469Z,4.07
2019-02-19T19:13:15.909Z,4.67
2019-02-19T19:15:44.383Z,4.40
2019-02-19T19:18:12.958Z,4.57
2019-02-19T19:20:41.488Z,5.30
2019-02-19T19:23:10.096Z,5.80
2019-02-19T19:25:38.557Z,5.30
2019-02-19T19:28:08.497Z,6.27
2019-02-19T19:30:37.246Z,7.00
2019-02-19T19:33:05.682Z,7.37
2019-02-19T19:35:34.217Z,7.00
2019-02-19T19:38:02.673Z,6.13
2019-02-19T19:40:31.154Z,6.33
2019-02-19T19:42:59.856Z,5.77
2019-02-19T19:45:28.502Z,6.73
2019-02-19T19:47:57.042Z,6.20
2019-02-19T19:50:25.526Z,6.90
2019-02-19T19:52:54.141Z,8.87
2019-02-19T19:55:22.648Z,7.97
2019-02-19T19:57:51.566Z,6.97
2019-02-19T20:00:20.831Z,7.20
2019-02-19T20:02:49.307Z,6.40
2019-02-19T20:05:17.816Z,6.87
2019-02-19T20:07:46.374Z,6.27
2019-02-19T20:10:15.683Z,7.30
2019-02-19T20:12:44.176Z,7.00
2019-02-19T20:15:13.175Z,7.57
2019-02-19T20:17:41.718Z,7.37
2019-02-19T20:20:11.614Z,7.37
2019-02-19T20:22:40.259Z,7.13
2019-02-19T20:25:11.055Z,6.97
2019-02-19T20:27:39.680Z,7.97
2019-02-19T20:30:13.191Z,7.57
2019-02-19T20:32:41.914Z,8.00
2019-02-19T20:35:11.171Z,7.47
2019-02-19T20:37:39.888Z,7.77
2019-02-19T20:40:10.123Z,7.17
2019-02-19T20:42:38.616Z,7.00
2019-02-19T20:45:11.649Z,7.00
2019-02-19T20:47:40.247Z,6.70
2019-02-19T20:50:10.654Z,8.20
2019-02-19T20:52:39.390Z,7.47
2019-02-19T20:55:10.922Z,7.37
2019-02-19T20:57:39.602Z,7.53
2019-02-19T21:00:16.704Z,7.40
2019-02-19T21:02:45.304Z,7.27
2019-02-19T21:05:13.921Z,7.33
2019-02-19T21:07:42.475Z,7.77
2019-02-19T21:10:16.598Z,7.70
2019-02-19T21:12:45.175Z,8.30
2019-02-19T21:15:14.075Z,7.40
2019-02-19T21:17:42.671Z,7.57
2019-02-19T21:20:12.396Z,8.17
2019-02-19T21:22:40.892Z,8.33
2019-02-19T21:25:11.001Z,7.47
2019-02-19T21:27:39.591Z,7.53
2019-02-19T21:30:13.697Z,7.97
2019-02-19T21:32:42.223Z,7.77
2019-02-19T21:35:11.016Z,7.63
2019-02-19T21:37:39.478Z,7.70
2019-02-19T21:40:12.440Z,7.43
2019-02-19T21:42:41.012Z,6.93
2019-02-19T21:45:14.876Z,7.20
2019-02-19T21:47:43.433Z,6.80
2019-02-19T21:50:14.895Z,6.70
2019-02-19T21:52:43.275Z,7.33
2019-02-19T21:55:12.922Z,6.90
2019-02-19T21:57:41.360Z,7.30
2019-02-19T22:00:18.800Z,6.60
2019-02-19T22:02:47.479Z,6.97
2019-02-19T22:05:16.116Z,7.47
2019-02-19T22:07:44.603Z,8.37
2019-02-19T22:10:16.441Z,7.33
2019-02-19T22:12:44.937Z,7.10
2019-02-19T22:15:14.601Z,7.47
2019-02-19T22:17:43.133Z,6.93
2019-02-19T22:20:16.055Z,6.63
2019-02-19T22:22:44.608Z,7.30
2019-02-19T22:25:13.010Z,7.33
2019-02-19T22:27:41.965Z,7.13
2019-02-19T22:30:10.761Z,8.33
2019-02-19T22:32:39.457Z,6.53
2019-02-19T22:35:08.168Z,7.10
2019-02-19T22:37:36.780Z,8.13
2019-02-19T22:40:07.542Z,7.03
2019-02-19T22:42:36.079Z,7.27
2019-02-19T22:45:06.310Z,7.17
2019-02-19T22:47:34.791Z,6.53
2019-02-19T22:50:03.914Z,6.90
2019-02-19T22:52:32.446Z,6.57
2019-02-19T22:55:08.649Z,7.17
2019-02-19T22:57:37.221Z,7.20
2019-02-19T23:00:10.343Z,6.60
2019-02-19T23:02:38.879Z,6.67
2019-02-19T23:05:07.565Z,6.80
2019-02-19T23:07:36.057Z,7.80
2019-02-19T23:10:06.093Z,7.80
2019-02-19T23:12:35.008Z,6.93
2019-02-19T23:15:03.609Z,7.23
2019-02-19T23:17:32.147Z,6.90
2019-02-19T23:20:00.600Z,6.77
2019-02-19T23:22:29.029Z,7.47
2019-02-19T23:24:57.574Z,7.00
2019-02-19T23:27:25.999Z,7.33
2019-02-19T23:29:54.870Z,7.10
2019-02-19T23:32:23.284Z,7.23
2019-02-19T23:34:53.413Z,6.67
2019-02-19T23:37:21.850Z,7.57
2019-02-19T23:39:50.560Z,7.70
2019-02-19T23:42:19.010Z,7.40
2019-02-19T23:44:47.616Z,7.13
2019-02-19T23:47:16.220Z,7.10
2019-02-19T23:49:44.673Z,6.83
2019-02-19T23:52:13.280Z,7.50
2019-02-19T23:54:41.733Z,7.30
2019-02-19T23:57:10.205Z,7.63
2019-02-19T23:59:38.747Z,7.37
